createdAt,value
2022-08-17T00:01:00.778Z,22.15
2022-08-17T00:03:38.759Z,22.08
2022-08-17T00:06:14.081Z,22.01
2022-08-17T00:08:49.619Z,21.97
2022-08-17T00:11:25.130Z,21.97
2022-08-17T00:13:59.941Z,21.90
2022-08-17T00:16:57.190Z,21.86
2022-08-17T00:19:30.420Z,21.88
2022-08-17T00:22:32.107Z,21.88
2022-08-17T00:24:56.410Z,21.79
2022-08-17T00:27:28.678Z,21.80
2022-08-17T00:30:01.250Z,21.72
2022-08-17T00:33:22.800Z,21.66
2022-08-17T00:35:33.360Z,21.59
2022-08-17T00:38:09.919Z,21.38
2022-08-17T00:40:44.759Z,21.51
2022-08-17T00:43:20.383Z,21.59
2022-08-17T00:45:53.160Z,21.63
2022-08-17T00:48:29.823Z,21.64
2022-08-17T00:51:09.080Z,21.58
2022-08-17T00:53:45.202Z,21.52
2022-08-17T00:56:22.902Z,21.48
2022-08-17T00:58:57.259Z,21.48
2022-08-17T01:01:30.175Z,21.47
2022-08-17T01:04:06.080Z,21.42
2022-08-17T01:06:38.619Z,21.44
2022-08-17T01:09:12.059Z,21.45
2022-08-17T01:11:44.558Z,21.45
2022-08-17T01:14:16.780Z,21.42
2022-08-17T01:16:49.118Z,21.38
2022-08-17T01:19:29.181Z,21.40
2022-08-17T01:22:08.023Z,21.37
2022-08-17T01:24:46.259Z,21.35
2022-08-17T01:27:21.159Z,21.33
2022-08-17T01:29:57.306Z,21.29
2022-08-17T01:32:32.021Z,21.27
2022-08-17T01:35:04.098Z,21.25
2022-08-17T01:37:39.849Z,21.19
2022-08-17T01:40:20.140Z,21.22
2022-08-17T01:42:58.260Z,21.24
2022-08-17T01:45:34.548Z,21.22
2022-08-17T01:48:07.809Z,21.20
2022-08-17T01:50:41.218Z,21.17
2022-08-17T01:53:19.058Z,21.12
2022-08-17T01:56:00.380Z,21.03
2022-08-17T01:58:33.059Z,21.08
2022-08-17T02:01:05.059Z,21.08
2022-08-17T02:03:38.601Z,21.04
2022-08-17T02:06:27.130Z,20.97
2022-08-17T02:09:02.937Z,20.91
2022-08-17T02:11:41.020Z,20.86
2022-08-17T02:14:14.738Z,20.86
2022-08-17T02:16:47.718Z,20.83
2022-08-17T02:19:22.115Z,20.83
2022-08-17T02:21:57.239Z,20.80
2022-08-17T02:25:00.720Z,20.77
2022-08-17T02:28:18.159Z,20.81
2022-08-17T02:31:01.156Z,20.73
2022-08-17T02:33:41.852Z,20.73
2022-08-17T02:36:17.119Z,20.63
2022-08-17T02:38:49.082Z,20.64
2022-08-17T02:41:21.699Z,20.63
2022-08-17T02:43:56.841Z,20.66
2022-08-17T02:46:30.974Z,20.66
2022-08-17T02:49:03.059Z,20.67
2022-08-17T02:51:35.740Z,20.63
2022-08-17T02:54:39.372Z,20.66
2022-08-17T02:57:00.922Z,20.68
2022-08-17T02:59:35.838Z,20.69
2022-08-17T03:02:09.639Z,20.74
2022-08-17T03:04:42.399Z,20.71
2022-08-17T03:07:15.759Z,20.63
2022-08-17T03:09:48.080Z,20.68
2022-08-17T03:12:20.540Z,20.70
2022-08-17T03:14:55.360Z,20.66
2022-08-17T03:17:27.962Z,20.61
2022-08-17T03:20:00.097Z,20.55
2022-08-17T03:22:37.108Z,20.45
2022-08-17T03:25:27.780Z,20.51
2022-08-17T03:28:01.778Z,20.49
2022-08-17T03:30:37.903Z,20.49
2022-08-17T03:33:13.382Z,20.48
2022-08-17T03:35:45.841Z,20.40
2022-08-17T03:38:18.821Z,20.32
2022-08-17T03:40:56.464Z,20.27
2022-08-17T03:43:32.480Z,20.25
2022-08-17T03:46:34.458Z,20.28
2022-08-17T03:49:22.040Z,20.25
2022-08-17T03:52:06.401Z,20.25
2022-08-17T03:54:50.987Z,20.27
2022-08-17T03:57:22.943Z,20.22
2022-08-17T03:59:55.259Z,20.25
2022-08-17T04:02:33.689Z,20.21
2022-08-17T04:05:06.039Z,20.25
2022-08-17T04:07:38.018Z,20.25
2022-08-17T04:10:11.701Z,20.27
2022-08-17T04:12:50.120Z,20.40
2022-08-17T04:15:23.100Z,20.46
2022-08-17T04:17:58.702Z,20.49
2022-08-17T04:20:31.738Z,20.47
2022-08-17T04:23:06.459Z,20.48
2022-08-17T04:25:42.340Z,20.55
2022-08-17T04:28:15.859Z,20.50
2022-08-17T04:30:50.080Z,20.51
2022-08-17T04:33:26.681Z,20.57
2022-08-17T04:36:01.842Z,20.62
2022-08-17T04:38:36.660Z,20.67
2022-08-17T04:41:48.638Z,20.79
2022-08-17T04:44:36.972Z,20.83
2022-08-17T04:47:10.612Z,20.95
2022-08-17T04:49:47.460Z,21.09
2022-08-17T04:52:29.720Z,21.21
2022-08-17T04:55:13.580Z,21.33
2022-08-17T04:57:45.578Z,21.46
2022-08-17T05:00:18.188Z,21.59
2022-08-17T05:02:52.622Z,21.70
2022-08-17T05:05:30.361Z,21.77
2022-08-17T05:08:05.682Z,21.89
2022-08-17T05:10:39.260Z,22.08
2022-08-17T05:13:20.041Z,22.24
2022-08-17T05:15:53.700Z,22.36
2022-08-17T05:18:25.802Z,22.43
2022-08-17T05:21:00.977Z,22.51
2022-08-17T05:23:41.588Z,22.58
2022-08-17T05:26:25.787Z,22.66
2022-08-17T05:29:00.438Z,22.78
2022-08-17T05:31:34.663Z,22.87
2022-08-17T05:34:07.480Z,22.99
2022-08-17T05:36:44.352Z,23.09
2022-08-17T05:39:17.823Z,23.20
2022-08-17T05:41:51.218Z,23.36
2022-08-17T05:44:23.440Z,23.48
2022-08-17T05:46:56.781Z,23.60
2022-08-17T05:49:31.029Z,23.76
2022-08-17T05:52:26.760Z,23.95
2022-08-17T05:55:13.221Z,24.06
2022-08-17T05:58:01.682Z,24.23
2022-08-17T06:00:42.079Z,24.40
2022-08-17T06:03:30.540Z,24.64
2022-08-17T06:06:20.260Z,24.95
2022-08-17T06:09:14.488Z,25.52
2022-08-17T06:11:53.662Z,26.22
2022-08-17T06:14:42.599Z,27.11
2022-08-17T06:17:18.026Z,27.98
2022-08-17T06:19:55.984Z,28.49
2022-08-17T06:22:33.204Z,28.90
2022-08-17T06:25:15.722Z,29.06
2022-08-17T06:27:53.988Z,29.11
2022-08-17T06:30:28.612Z,30.48
2022-08-17T06:33:25.660Z,30.54
2022-08-17T06:36:09.488Z,30.36
2022-08-17T06:38:56.740Z,30.83
2022-08-17T06:41:43.200Z,30.67
2022-08-17T06:44:43.169Z,30.95
2022-08-17T06:47:28.116Z,31.48
2022-08-17T06:50:14.699Z,31.39
2022-08-17T06:52:55.989Z,31.73
2022-08-17T06:55:37.951Z,31.84
2022-08-17T06:58:16.984Z,32.52
2022-08-17T07:00:56.610Z,32.57
2022-08-17T07:03:38.802Z,32.99
2022-08-17T07:06:17.940Z,33.34
2022-08-17T07:08:59.300Z,33.53
2022-08-17T07:11:37.201Z,33.69
2022-08-17T07:14:30.641Z,34.03
2022-08-17T07:17:09.300Z,34.33
2022-08-17T07:19:45.735Z,34.93
2022-08-17T07:22:26.183Z,34.86
2022-08-17T07:25:00.961Z,34.90
2022-08-17T07:27:38.939Z,34.91
2022-08-17T07:30:19.943Z,34.41
2022-08-17T07:32:57.642Z,34.06
2022-08-17T07:35:41.208Z,34.98
2022-08-17T07:38:25.603Z,35.29
2022-08-17T07:41:07.860Z,34.54
2022-08-17T07:43:48.681Z,35.15
2022-08-17T07:46:37.982Z,35.20
2022-08-17T07:49:27.721Z,35.24
2022-08-17T07:52:24.319Z,35.20
2022-08-17T07:54:59.941Z,35.48
2022-08-17T07:57:39.929Z,35.99
2022-08-17T08:00:31.590Z,35.46
2022-08-17T08:03:18.142Z,36.04
2022-08-17T08:05:57.999Z,35.39
2022-08-17T08:08:33.219Z,36.16
2022-08-17T08:11:09.485Z,35.55
2022-08-17T08:13:45.957Z,35.54
2022-08-17T08:16:26.002Z,35.64
2022-08-17T08:19:03.088Z,35.31
2022-08-17T08:21:46.720Z,34.99
2022-08-17T08:24:31.965Z,35.95
2022-08-17T08:27:16.280Z,35.36
2022-08-17T08:29:56.141Z,34.96
2022-08-17T08:32:44.540Z,36.54
2022-08-17T08:35:31.780Z,36.43
2022-08-17T08:38:20.362Z,36.81
2022-08-17T08:41:09.220Z,36.15
2022-08-17T08:44:01.002Z,36.71
2022-08-17T08:46:42.609Z,36.71
2022-08-17T08:50:03.482Z,37.68
2022-08-17T08:52:55.940Z,38.13
2022-08-17T08:55:48.558Z,36.34
2022-08-17T08:58:41.734Z,36.58
2022-08-17T09:01:27.913Z,36.77
2022-08-17T09:04:24.550Z,37.66
2022-08-17T09:07:12.477Z,37.27
2022-08-17T09:10:09.796Z,36.84
2022-08-17T09:12:54.443Z,37.37
2022-08-17T09:15:32.456Z,38.09
2022-08-17T09:19:01.747Z,37.66
2022-08-17T09:21:11.673Z,36.99
2022-08-17T09:23:49.874Z,36.72
2022-08-17T09:26:31.219Z,37.18
2022-08-17T09:29:08.974Z,37.93
2022-08-17T09:31:49.133Z,37.93
2022-08-17T09:34:33.280Z,37.20
2022-08-17T09:37:22.284Z,38.31
2022-08-17T09:40:07.698Z,38.33
2022-08-17T09:42:48.842Z,36.99
2022-08-17T09:45:33.243Z,37.00
2022-08-17T09:48:09.364Z,37.72
2022-08-17T09:51:03.663Z,37.85
2022-08-17T09:53:39.761Z,37.84
2022-08-17T09:56:42.448Z,37.56
2022-08-17T09:59:45.063Z,37.16
2022-08-17T10:02:46.243Z,37.08
2022-08-17T10:05:25.049Z,37.48
2022-08-17T10:08:09.541Z,38.28
2022-08-17T10:10:56.870Z,38.01
2022-08-17T10:13:38.924Z,37.37
2022-08-17T10:16:23.848Z,37.97
2022-08-17T10:19:08.103Z,37.61
2022-08-17T10:22:00.646Z,36.33
2022-08-17T10:25:21.149Z,37.32
2022-08-17T10:27:49.052Z,37.40
2022-08-17T10:30:25.390Z,37.07
2022-08-17T10:33:03.886Z,37.44
2022-08-17T10:35:45.487Z,36.63
2022-08-17T10:38:46.390Z,37.29
2022-08-17T10:41:27.366Z,37.33
2022-08-17T10:44:38.730Z,36.72
2022-08-17T10:47:09.746Z,37.83
2022-08-17T10:49:48.155Z,38.07
2022-08-17T10:52:55.328Z,36.71
2022-08-17T10:55:28.169Z,36.75
2022-08-17T10:58:24.743Z,36.72
2022-08-17T11:01:09.319Z,35.85
2022-08-17T11:03:55.129Z,35.71
2022-08-17T11:06:48.967Z,35.94
2022-08-17T11:09:36.428Z,35.51
2022-08-17T11:12:22.728Z,35.70
2022-08-17T11:15:17.647Z,36.61
2022-08-17T11:18:16.131Z,36.87
2022-08-17T11:21:35.069Z,36.80
2022-08-17T11:24:31.724Z,35.57
2022-08-17T11:27:22.835Z,36.27
2022-08-17T11:30:01.834Z,36.67
2022-08-17T11:32:47.560Z,36.78
2022-08-17T11:35:41.937Z,36.17
2022-08-17T11:38:37.914Z,35.77
2022-08-17T11:41:24.300Z,35.39
2022-08-17T11:44:20.411Z,35.49
2022-08-17T11:47:25.211Z,36.13
2022-08-17T11:50:46.031Z,35.73
2022-08-17T11:53:47.596Z,36.54
2022-08-17T11:56:42.198Z,36.05
2022-08-17T11:59:44.136Z,36.79
2022-08-17T12:02:35.444Z,36.67
2022-08-17T12:05:28.516Z,36.43
2022-08-17T12:08:18.076Z,35.79
2022-08-17T12:11:03.556Z,35.97
2022-08-17T12:13:47.901Z,35.81
2022-08-17T12:16:21.365Z,35.65
2022-08-17T12:18:59.665Z,34.99
2022-08-17T12:21:46.525Z,34.76
2022-08-17T12:24:31.766Z,34.94
2022-08-17T12:27:09.669Z,34.63
2022-08-17T12:29:47.486Z,34.90
2022-08-17T12:32:24.025Z,35.03
2022-08-17T12:34:56.847Z,34.96
2022-08-17T12:37:32.485Z,35.17
2022-08-17T12:40:09.182Z,34.77
2022-08-17T12:42:42.883Z,35.11
2022-08-17T12:45:32.725Z,35.08
2022-08-17T12:48:07.956Z,34.95
2022-08-17T12:50:43.914Z,35.19
2022-08-17T12:53:18.623Z,35.27
2022-08-17T12:55:52.420Z,35.11
2022-08-17T12:58:28.655Z,35.31
2022-08-17T13:01:08.953Z,34.97
2022-08-17T13:03:45.796Z,34.83
2022-08-17T13:06:31.807Z,34.72
2022-08-17T13:09:13.241Z,33.68
2022-08-17T13:11:54.162Z,33.99
2022-08-17T13:14:26.281Z,33.94
2022-08-17T13:17:11.136Z,34.03
2022-08-17T13:19:53.099Z,33.81
2022-08-17T13:22:27.363Z,33.70
2022-08-17T13:25:11.420Z,33.76
2022-08-17T13:27:46.441Z,33.84
2022-08-17T13:30:28.385Z,33.81
2022-08-17T13:33:05.039Z,33.66
2022-08-17T13:35:47.075Z,33.95
2022-08-17T13:38:41.361Z,34.29
2022-08-17T13:41:34.810Z,34.37
2022-08-17T13:44:38.158Z,34.36
2022-08-17T13:47:22.358Z,34.16
2022-08-17T13:49:58.438Z,34.35
2022-08-17T13:52:41.139Z,34.55
2022-08-17T13:55:23.676Z,34.50
2022-08-17T13:58:06.686Z,34.32
2022-08-17T14:00:41.139Z,34.26
2022-08-17T14:03:13.098Z,34.46
2022-08-17T14:05:50.435Z,34.44
2022-08-17T14:08:24.309Z,34.46
2022-08-17T14:11:07.813Z,34.16
2022-08-17T14:13:41.909Z,34.01
2022-08-17T14:16:14.086Z,34.13
2022-08-17T14:18:56.765Z,34.20
2022-08-17T14:21:35.768Z,34.08
2022-08-17T14:24:16.327Z,34.04
2022-08-17T14:26:48.575Z,34.16
2022-08-17T14:29:20.560Z,33.94
2022-08-17T14:31:54.738Z,33.96
2022-08-17T14:34:28.136Z,34.20
2022-08-17T14:37:03.130Z,34.18
2022-08-17T14:39:35.323Z,34.11
2022-08-17T14:42:07.989Z,34.12
2022-08-17T14:44:40.006Z,34.07
2022-08-17T14:47:16.050Z,33.84
2022-08-17T14:49:48.586Z,33.94
2022-08-17T14:52:24.589Z,34.09
2022-08-17T14:54:56.731Z,34.13
2022-08-17T14:57:34.175Z,34.11
2022-08-17T15:00:10.488Z,34.01
2022-08-17T15:02:54.276Z,33.86
2022-08-17T15:05:29.579Z,33.99
2022-08-17T15:08:16.876Z,33.83
2022-08-17T15:10:53.347Z,33.80
2022-08-17T15:13:29.222Z,33.65
2022-08-17T15:16:04.282Z,33.45
2022-08-17T15:18:36.688Z,33.59
2022-08-17T15:21:10.855Z,33.71
2022-08-17T15:23:45.817Z,33.82
2022-08-17T15:26:20.643Z,33.94
2022-08-17T15:28:56.899Z,33.73
2022-08-17T15:31:32.265Z,33.56
2022-08-17T15:34:05.597Z,33.48
2022-08-17T15:36:43.877Z,33.43
2022-08-17T15:39:26.709Z,33.43
2022-08-17T15:41:59.287Z,33.51
2022-08-17T15:44:32.753Z,33.12
2022-08-17T15:47:07.181Z,33.61
2022-08-17T15:49:42.542Z,33.60
2022-08-17T15:52:20.163Z,33.58
2022-08-17T15:55:00.165Z,33.36
2022-08-17T15:57:32.080Z,33.19
2022-08-17T16:00:04.843Z,33.20
2022-08-17T16:03:44.370Z,33.01
2022-08-17T16:05:32.034Z,33.18
2022-08-17T16:08:04.821Z,33.17
2022-08-17T16:10:40.542Z,33.13
2022-08-17T16:13:17.346Z,33.17
2022-08-17T16:15:57.533Z,33.10
2022-08-17T16:18:32.478Z,32.75
2022-08-17T16:21:22.951Z,32.86
2022-08-17T16:23:57.885Z,32.81
2022-08-17T16:26:34.065Z,32.85
2022-08-17T16:29:13.564Z,33.20
2022-08-17T16:31:46.095Z,32.68
2022-08-17T16:34:21.674Z,33.17
2022-08-17T16:36:56.533Z,33.20
2022-08-17T16:39:33.577Z,33.24
2022-08-17T16:42:09.734Z,33.06
2022-08-17T16:44:42.176Z,33.18
2022-08-17T16:47:32.733Z,33.07
2022-08-17T16:50:20.554Z,33.03
2022-08-17T16:53:03.435Z,33.02
2022-08-17T16:55:53.714Z,33.08
2022-08-17T16:58:46.273Z,32.90
2022-08-17T17:02:01.757Z,32.98
2022-08-17T17:04:58.492Z,32.79
2022-08-17T17:08:01.088Z,32.54
2022-08-17T17:10:39.074Z,32.27
2022-08-17T17:13:17.035Z,32.30
2022-08-17T17:15:57.756Z,32.17
2022-08-17T17:18:40.592Z,32.09
2022-08-17T17:21:17.373Z,32.06
2022-08-17T17:23:58.194Z,31.98
2022-08-17T17:26:47.255Z,31.72
2022-08-17T17:30:29.376Z,31.70
2022-08-17T17:33:12.314Z,31.73
2022-08-17T17:35:50.294Z,31.78
2022-08-17T17:38:29.172Z,31.74
2022-08-17T17:41:09.153Z,31.67
2022-08-17T17:43:41.936Z,31.58
2022-08-17T17:46:28.063Z,31.47
2022-08-17T17:49:07.184Z,31.36
2022-08-17T17:52:09.361Z,31.51
2022-08-17T17:55:05.754Z,31.42
2022-08-17T17:57:56.203Z,31.41
2022-08-17T18:00:36.534Z,31.39
2022-08-17T18:03:38.623Z,31.25
2022-08-17T18:06:24.056Z,30.98
2022-08-17T18:09:06.335Z,30.80
2022-08-17T18:11:54.872Z,30.68
2022-08-17T18:14:46.573Z,30.43
2022-08-17T18:17:18.877Z,30.23
2022-08-17T18:19:50.792Z,30.03
2022-08-17T18:22:28.097Z,30.01
2022-08-17T18:25:00.312Z,29.92
2022-08-17T18:27:41.455Z,29.70
2022-08-17T18:30:30.636Z,29.60
2022-08-17T18:33:24.873Z,29.30
2022-08-17T18:35:58.902Z,29.31
2022-08-17T18:38:38.875Z,29.25
2022-08-17T18:41:24.695Z,29.10
2022-08-17T18:44:05.973Z,28.99
2022-08-17T18:46:40.496Z,28.91
2022-08-17T18:49:31.294Z,28.80
2022-08-17T18:52:14.972Z,28.73
2022-08-17T18:55:09.086Z,28.57
2022-08-17T18:57:44.966Z,28.48
2022-08-17T19:00:39.757Z,28.30
2022-08-17T19:03:28.735Z,28.26
2022-08-17T19:06:20.875Z,28.09
2022-08-17T19:08:53.110Z,28.08
2022-08-17T19:11:32.874Z,28.03
2022-08-17T19:14:21.114Z,27.91
2022-08-17T19:16:59.413Z,27.97
2022-08-17T19:19:37.055Z,27.88
2022-08-17T19:22:29.057Z,27.68
2022-08-17T19:25:16.054Z,27.71
2022-08-17T19:27:58.483Z,27.59
2022-08-17T19:30:31.115Z,27.55
2022-08-17T19:33:05.474Z,27.50
2022-08-17T19:35:52.614Z,27.55
2022-08-17T19:38:37.675Z,27.81
2022-08-17T19:41:16.715Z,27.80
2022-08-17T19:44:16.403Z,27.82
2022-08-17T19:47:00.681Z,27.77
2022-08-17T19:49:47.077Z,27.74
2022-08-17T19:52:40.833Z,27.71
2022-08-17T19:55:22.694Z,27.53
2022-08-17T19:58:07.738Z,27.77
2022-08-17T20:00:52.517Z,27.77
2022-08-17T20:03:29.773Z,27.61
2022-08-17T20:06:13.471Z,27.62
2022-08-17T20:08:57.561Z,27.72
2022-08-17T20:11:37.614Z,27.76
2022-08-17T20:14:15.254Z,27.77
2022-08-17T20:16:50.318Z,27.73
2022-08-17T20:19:31.402Z,27.64
2022-08-17T20:22:07.573Z,27.56
2022-08-17T20:24:47.374Z,27.53
2022-08-17T20:27:27.994Z,27.57
2022-08-17T20:30:13.033Z,27.49
2022-08-17T20:32:59.394Z,27.34
2022-08-17T20:35:35.198Z,27.18
2022-08-17T20:38:13.460Z,27.15
2022-08-17T20:41:13.453Z,27.18
2022-08-17T20:43:52.753Z,27.26
2022-08-17T20:46:44.855Z,27.16
2022-08-17T20:49:27.573Z,27.22
2022-08-17T20:52:05.294Z,27.14
2022-08-17T20:54:51.222Z,27.23
2022-08-17T20:57:49.376Z,27.26
2022-08-17T21:00:46.914Z,27.20
2022-08-17T21:03:51.913Z,27.26
2022-08-17T21:06:29.254Z,27.30
2022-08-17T21:09:22.513Z,27.23
2022-08-17T21:12:05.623Z,27.15
2022-08-17T21:14:58.998Z,27.25
2022-08-17T21:17:53.537Z,27.15
2022-08-17T21:20:42.895Z,27.21
2022-08-17T21:23:40.754Z,27.19
2022-08-17T21:26:30.365Z,27.13
2022-08-17T21:29:30.418Z,27.17
2022-08-17T21:32:24.705Z,27.00
2022-08-17T21:35:28.590Z,26.98
2022-08-17T21:38:06.973Z,27.01
2022-08-17T21:40:47.334Z,27.03
2022-08-17T21:43:29.833Z,26.97
2022-08-17T21:46:07.985Z,26.95
2022-08-17T21:48:48.184Z,26.99
2022-08-17T21:51:24.113Z,27.08
2022-08-17T21:53:59.675Z,27.05
2022-08-17T21:56:37.906Z,26.97
2022-08-17T21:59:19.698Z,26.57
2022-08-17T22:01:58.314Z,26.67
2022-08-17T22:04:33.936Z,26.76
2022-08-17T22:07:09.075Z,26.68
2022-08-17T22:09:46.615Z,26.61
2022-08-17T22:12:24.495Z,26.58
2022-08-17T22:15:04.579Z,26.57
2022-08-17T22:17:41.737Z,26.42
2022-08-17T22:20:18.302Z,26.53
2022-08-17T22:23:32.674Z,26.60
2022-08-17T22:26:09.567Z,26.43
2022-08-17T22:28:52.779Z,26.49
2022-08-17T22:31:27.634Z,26.44
2022-08-17T22:34:16.118Z,26.33
2022-08-17T22:36:48.323Z,26.28
2022-08-17T22:39:45.711Z,26.39
2022-08-17T22:42:18.696Z,26.38
2022-08-17T22:44:55.435Z,26.22
2022-08-17T22:47:39.802Z,26.22
2022-08-17T22:50:24.515Z,26.17
2022-08-17T22:53:14.634Z,26.13
2022-08-17T22:56:08.297Z,26.11
2022-08-17T22:59:04.655Z,25.95
2022-08-17T23:01:40.935Z,25.95
2022-08-17T23:04:16.616Z,26.02
2022-08-17T23:06:49.035Z,26.07
2022-08-17T23:09:21.198Z,26.06
2022-08-17T23:11:58.956Z,26.09
2022-08-17T23:14:32.717Z,26.13
2022-08-17T23:17:08.414Z,25.95
2022-08-17T23:19:58.935Z,26.07
2022-08-17T23:22:32.584Z,26.05
2022-08-17T23:25:06.254Z,26.15
2022-08-17T23:27:38.598Z,26.12
2022-08-17T23:30:13.176Z,26.02
2022-08-17T23:32:53.704Z,25.88
2022-08-17T23:35:39.983Z,25.86
2022-08-17T23:38:16.217Z,25.89
2022-08-17T23:40:48.536Z,25.82
2022-08-17T23:43:25.228Z,25.75
2022-08-17T23:46:04.114Z,25.70
2022-08-17T23:48:42.595Z,25.64
2022-08-17T23:51:19.215Z,25.59
2022-08-17T23:53:54.496Z,25.50
2022-08-17T23:56:27.357Z,25.53
2022-08-17T23:59:00.435Z,25.40
